Time;durP1;ratioP1;P1;durP2;ratioP2;P2;SDS_P1;SDS_P2;PMS_P1;PMS_P2;Temp;Humidity;BMP_temperature;BMP_pressure;BME280_temperature;BME280_humidity;BME280_pressure;Samples;Min_cycle;Max_cycle;Signal;HPM_P1;HPM_P2
2023/06/14 00:02:11;;;;;;;15.25;8.50;;;18.90;14.10;;;;;;5055117;28;20390;-73
2023/06/14 00:04:39;;;;;;;12.03;8.37;;;18.80;14.50;;;;;;5056255;28;20393;-74
2023/06/14 00:07:08;;;;;;;13.43;7.80;;;19.00;14.60;;;;;;5054846;28;20435;-75
2023/06/14 00:09:33;;;;;;;15.50;8.32;;;19.20;13.90;;;;;;5053572;28;20409;-74
2023/06/14 00:11:59;;;;;;;14.05;8.40;;;19.00;14.30;;;;;;5052482;28;20385;-72
2023/06/14 00:14:25;;;;;;;14.40;8.43;;;19.00;14.70;;;;;;5052659;28;20428;-73
2023/06/14 00:16:52;;;;;;;13.27;8.25;;;18.90;14.90;;;;;;5052915;28;20401;-73
2023/06/14 00:19:18;;;;;;;11.95;8.35;;;18.70;15.20;;;;;;5052792;28;20409;-73
2023/06/14 00:21:46;;;;;;;11.52;7.80;;;18.50;15.60;;;;;;5052751;28;20424;-73
2023/06/14 00:24:12;;;;;;;12.88;8.60;;;18.30;16.10;;;;;;5051786;28;20390;-72
2023/06/14 00:26:37;;;;;;;12.52;8.93;;;18.30;16.40;;;;;;5054157;28;20385;-74
2023/06/14 00:29:03;;;;;;;13.10;8.70;;;18.20;16.90;;;;;;5052811;28;20739;-73
2023/06/14 00:31:29;;;;;;;12.20;8.40;;;18.10;17.50;;;;;;5051716;28;20393;-74
2023/06/14 00:33:54;;;;;;;11.35;8.10;;;18.00;17.70;;;;;;5051867;28;20378;-74
2023/06/14 00:36:20;;;;;;;10.20;8.10;;;17.80;18.30;;;;;;5050095;28;20402;-74
2023/06/14 00:38:45;;;;;;;14.37;8.57;;;17.60;19.10;;;;;;5051830;28;20417;-75
2023/06/14 00:41:11;;;;;;;14.40;8.23;;;17.50;19.90;;;;;;5051556;28;20428;-73
2023/06/14 00:43:37;;;;;;;12.77;8.57;;;17.40;20.50;;;;;;5051223;28;20862;-73
2023/06/14 00:46:02;;;;;;;11.48;8.35;;;17.30;20.60;;;;;;5051369;28;20397;-73
2023/06/14 00:48:28;;;;;;;13.40;8.10;;;17.30;20.90;;;;;;5051432;28;20374;-72
2023/06/14 00:50:54;;;;;;;13.82;8.30;;;17.20;21.10;;;;;;5050918;28;20377;-73
2023/06/14 00:53:22;;;;;;;11.88;8.30;;;17.20;21.50;;;;;;5051253;28;20377;-74
2023/06/14 00:55:48;;;;;;;11.75;8.60;;;17.30;21.90;;;;;;5051060;28;20385;-73
2023/06/14 00:58:14;;;;;;;15.98;8.90;;;17.40;22.00;;;;;;5051367;28;20492;-74
2023/06/14 01:00:40;;;;;;;14.63;8.53;;;17.60;20.70;;;;;;5051739;28;20412;-74
2023/06/14 01:03:06;;;;;;;13.60;9.13;;;17.90;19.80;;;;;;5051405;28;20467;-72
2023/06/14 01:05:32;;;;;;;13.93;9.00;;;18.10;19.20;;;;;;5049989;28;20539;-74
2023/06/14 01:08:04;;;;;;;11.43;8.10;;;18.10;19.90;;;;;;5050961;28;20383;-74
2023/06/14 01:10:32;;;;;;;12.40;8.23;;;18.00;20.60;;;;;;5051019;28;20416;-74
2023/06/14 01:13:15;;;;;;;13.32;8.70;;;17.70;21.30;;;;;;5051197;28;20386;-74
2023/06/14 01:15:42;;;;;;;11.95;8.90;;;17.60;21.90;;;;;;5051472;28;20377;-75
2023/06/14 01:18:16;;;;;;;16.30;9.43;;;17.80;21.30;;;;;;5051136;28;20419;-74
2023/06/14 01:20:44;;;;;;;11.45;8.05;;;17.90;20.70;;;;;;5051528;28;20380;-74
2023/06/14 01:23:12;;;;;;;15.13;9.13;;;18.00;20.00;;;;;;5051111;28;20377;-73
2023/06/14 01:25:38;;;;;;;14.27;8.90;;;17.90;20.40;;;;;;5050919;28;20377;-73
2023/06/14 01:28:11;;;;;;;13.90;8.95;;;17.80;20.00;;;;;;5051160;28;20386;-75
2023/06/14 01:30:38;;;;;;;13.15;8.48;;;17.80;20.40;;;;;;5051248;28;20381;-74
2023/06/14 01:33:05;;;;;;;13.32;8.50;;;17.70;21.20;;;;;;5051754;28;20419;-72
2023/06/14 01:35:31;;;;;;;14.93;8.65;;;17.50;20.90;;;;;;5052663;28;20866;-74
2023/06/14 01:37:57;;;;;;;17.35;8.80;;;17.40;21.30;;;;;;5053289;28;20485;-74
2023/06/14 01:40:24;;;;;;;14.10;8.82;;;17.20;22.30;;;;;;5053102;28;20377;-74
2023/06/14 01:42:51;;;;;;;13.40;8.60;;;17.00;22.70;;;;;;5053253;28;20420;-73
2023/06/14 01:45:18;;;;;;;14.75;8.13;;;17.10;22.80;;;;;;5057057;28;20401;-74
2023/06/14 01:47:45;;;;;;;14.10;9.35;;;17.20;22.40;;;;;;5056887;28;20373;-74
2023/06/14 01:50:10;;;;;;;13.02;8.57;;;17.40;22.40;;;;;;5056349;28;20464;-74
2023/06/14 01:52:38;;;;;;;13.70;8.60;;;17.30;22.20;;;;;;5055195;28;20429;-73
2023/06/14 01:55:05;;;;;;;14.93;9.00;;;17.30;22.20;;;;;;5056466;28;20389;-74
2023/06/14 01:57:30;;;;;;;12.20;8.80;;;17.20;22.30;;;;;;5056375;28;20463;-74
2023/06/14 01:59:56;;;;;;;12.70;8.70;;;16.90;23.00;;;;;;5056008;28;20427;-75
2023/06/14 02:02:21;;;;;;;15.03;9.37;;;17.00;23.10;;;;;;5055511;28;20381;-73
2023/06/14 02:04:47;;;;;;;13.73;8.77;;;17.10;23.40;;;;;;5054869;28;20383;-74
2023/06/14 02:07:14;;;;;;;12.95;8.60;;;16.90;23.10;;;;;;5056561;28;20788;-74
2023/06/14 02:09:40;;;;;;;13.88;9.07;;;16.80;23.80;;;;;;5058255;28;20396;-74
2023/06/14 02:12:06;;;;;;;12.48;8.48;;;17.00;23.30;;;;;;5062254;28;20464;-72
2023/06/14 02:14:33;;;;;;;14.55;9.05;;;17.00;22.70;;;;;;5077942;28;20393;-72
2023/06/14 02:17:00;;;;;;;16.08;9.45;;;17.00;22.90;;;;;;5077301;28;20408;-72
2023/06/14 02:19:26;;;;;;;12.23;7.78;;;16.90;23.00;;;;;;5076039;28;20390;-73
2023/06/14 02:21:52;;;;;;;16.23;8.70;;;16.80;23.50;;;;;;5075494;28;20389;-73
2023/06/14 02:24:17;;;;;;;14.70;9.10;;;16.80;23.60;;;;;;5059379;28;20428;-73
2023/06/14 02:26:43;;;;;;;14.70;9.00;;;16.90;23.00;;;;;;5056314;28;20464;-75
2023/06/14 02:29:10;;;;;;;13.73;9.30;;;16.90;23.00;;;;;;5055908;28;20373;-74
2023/06/14 02:31:36;;;;;;;19.17;9.40;;;16.90;23.20;;;;;;5058009;28;20389;-73
2023/06/14 02:34:02;;;;;;;17.30;8.75;;;16.80;23.50;;;;;;5054908;28;20399;-74
2023/06/14 02:36:30;;;;;;;15.23;8.45;;;16.90;23.20;;;;;;5055240;28;20390;-74
2023/06/14 02:38:57;;;;;;;13.75;9.05;;;16.90;22.70;;;;;;5054885;28;20404;-73
2023/06/14 02:41:23;;;;;;;13.90;8.88;;;16.90;22.30;;;;;;5055088;28;20405;-71
2023/06/14 02:43:49;;;;;;;14.73;9.07;;;16.90;22.20;;;;;;5055998;28;20763;-74
2023/06/14 02:46:14;;;;;;;14.50;8.40;;;17.00;21.70;;;;;;5061951;28;20385;-74
2023/06/14 02:48:40;;;;;;;12.40;8.30;;;17.00;21.70;;;;;;5063969;28;20397;-74
2023/06/14 02:51:06;;;;;;;13.87;8.83;;;17.00;21.70;;;;;;5067855;28;20393;-72
2023/06/14 02:53:32;;;;;;;12.00;7.93;;;16.90;22.10;;;;;;5071867;28;20392;-73
2023/06/14 02:55:58;;;;;;;13.40;8.20;;;16.80;22.10;;;;;;5066227;28;20393;-72
2023/06/14 02:58:24;;;;;;;13.25;7.85;;;16.90;21.80;;;;;;5061652;28;20416;-74
2023/06/14 03:00:52;;;;;;;14.10;8.80;;;16.80;22.00;;;;;;5054781;28;20738;-73
2023/06/14 03:03:18;;;;;;;16.52;8.07;;;16.80;22.40;;;;;;5054365;28;20408;-74
2023/06/14 03:05:47;;;;;;;13.40;8.48;;;16.80;22.20;;;;;;5054464;28;20382;-76
2023/06/14 03:08:16;;;;;;;13.73;8.98;;;16.80;22.40;;;;;;5055588;28;20439;-74
2023/06/14 03:10:43;;;;;;;11.73;8.55;;;16.80;22.40;;;;;;5060111;28;20377;-74
2023/06/14 03:13:10;;;;;;;14.43;8.75;;;16.70;22.80;;;;;;5061922;28;20389;-74
2023/06/14 03:15:36;;;;;;;16.73;9.10;;;16.80;22.60;;;;;;5067252;28;20389;-73
2023/06/14 03:18:01;;;;;;;11.67;8.73;;;16.80;22.00;;;;;;5069115;28;20386;-71
2023/06/14 03:20:29;;;;;;;10.57;8.05;;;16.90;22.20;;;;;;5059706;28;20389;-74
2023/06/14 03:22:55;;;;;;;17.67;8.13;;;16.80;22.00;;;;;;5065269;28;20378;-72
2023/06/14 03:25:21;;;;;;;14.45;8.15;;;16.70;22.50;;;;;;5064760;28;20400;-72
2023/06/14 03:27:47;;;;;;;14.03;8.87;;;16.70;22.60;;;;;;5057502;28;20546;-74
2023/06/14 03:30:13;;;;;;;13.70;8.93;;;16.80;22.30;;;;;;5053902;28;20420;-74
2023/06/14 03:32:39;;;;;;;16.40;8.88;;;16.80;22.30;;;;;;5053467;28;20722;-74
2023/06/14 03:35:05;;;;;;;12.88;8.70;;;16.80;22.10;;;;;;5053408;28;20389;-71
2023/06/14 03:37:30;;;;;;;14.80;8.40;;;16.80;22.00;;;;;;5053325;28;20420;-74
2023/06/14 03:39:56;;;;;;;10.75;7.70;;;16.80;21.80;;;;;;5051460;28;20405;-73
2023/06/14 03:42:22;;;;;;;12.75;8.13;;;16.80;22.00;;;;;;5052909;28;20396;-73
2023/06/14 03:44:47;;;;;;;14.77;8.60;;;16.80;22.30;;;;;;5052214;28;20393;-73
2023/06/14 03:47:13;;;;;;;15.67;8.20;;;16.60;23.00;;;;;;5052905;28;20382;-73
2023/06/14 03:49:38;;;;;;;17.60;8.60;;;16.50;23.40;;;;;;5052947;28;20467;-72
2023/06/14 03:52:05;;;;;;;16.15;8.30;;;16.50;23.70;;;;;;5052497;28;20385;-73
2023/06/14 03:54:32;;;;;;;13.98;8.45;;;16.50;23.60;;;;;;5052195;28;20431;-73
2023/06/14 03:56:58;;;;;;;15.43;9.50;;;16.60;23.50;;;;;;5052469;28;20992;-73
2023/06/14 03:59:25;;;;;;;12.65;8.40;;;16.80;22.90;;;;;;5052373;28;20405;-74
2023/06/14 04:01:51;;;;;;;17.70;8.45;;;16.80;23.60;;;;;;5052294;28;20473;-73
2023/06/14 04:04:16;;;;;;;13.53;8.43;;;16.60;23.90;;;;;;5052058;28;20494;-73
2023/06/14 04:06:42;;;;;;;11.80;8.52;;;16.60;24.10;;;;;;5051980;28;20882;-73
2023/06/14 04:09:08;;;;;;;11.88;7.93;;;16.40;24.40;;;;;;5052441;28;20404;-73
2023/06/14 04:11:33;;;;;;;11.98;7.68;;;16.40;24.80;;;;;;5052308;28;20447;-72
2023/06/14 04:14:00;;;;;;;10.07;7.70;;;16.60;24.00;;;;;;5052412;28;20378;-72
2023/06/14 04:16:26;;;;;;;11.45;7.80;;;16.70;23.60;;;;;;5052153;28;20401;-73
2023/06/14 04:18:52;;;;;;;13.18;7.55;;;16.60;23.80;;;;;;5052189;28;20401;-73
2023/06/14 04:21:17;;;;;;;11.70;8.50;;;16.50;24.50;;;;;;5051809;28;20887;-74
2023/06/14 04:23:43;;;;;;;12.57;8.32;;;16.60;24.00;;;;;;5051806;28;20385;-73
2023/06/14 04:26:10;;;;;;;13.87;8.70;;;17.00;22.70;;;;;;5051263;28;20396;-74
2023/06/14 04:28:40;;;;;;;12.15;8.45;;;17.20;22.50;;;;;;5052191;28;20388;-73
2023/06/14 04:31:08;;;;;;;17.95;8.70;;;17.30;21.90;;;;;;5051981;28;20385;-74
2023/06/14 04:33:42;;;;;;;20.02;10.13;;;17.20;21.80;;;;;;5052459;28;20443;-72
2023/06/14 04:36:12;;;;;;;13.98;8.70;;;17.30;21.70;;;;;;5051827;28;20436;-73
2023/06/14 04:38:38;;;;;;;15.05;10.25;;;17.50;20.40;;;;;;5051908;28;20735;-73
2023/06/14 04:41:04;;;;;;;19.25;11.30;;;17.50;20.50;;;;;;5050470;28;20392;-72
2023/06/14 04:43:31;;;;;;;12.73;7.97;;;17.50;20.50;;;;;;5050258;28;20944;-73
2023/06/14 04:45:57;;;;;;;13.00;8.40;;;17.50;20.10;;;;;;5049959;28;20439;-73
2023/06/14 04:48:23;;;;;;;18.88;8.98;;;17.50;20.60;;;;;;5051525;28;20882;-74
2023/06/14 04:50:52;;;;;;;14.83;8.50;;;17.50;20.10;;;;;;5051178;28;20415;-73
2023/06/14 04:53:21;;;;;;;14.30;8.27;;;17.70;20.10;;;;;;5052462;28;20428;-74
2023/06/14 04:55:47;;;;;;;14.95;7.53;;;17.50;20.60;;;;;;5053425;28;20723;-73
2023/06/14 04:58:12;;;;;;;9.47;7.30;;;17.40;21.00;;;;;;5051723;28;20435;-71
2023/06/14 05:00:38;;;;;;;13.10;7.90;;;17.30;21.10;;;;;;5051141;28;20393;-72
2023/06/14 05:03:05;;;;;;;13.65;7.63;;;17.60;20.20;;;;;;5051261;28;20377;-71
2023/06/14 05:05:31;;;;;;;14.10;7.55;;;17.80;19.50;;;;;;5051240;28;20409;-72
2023/06/14 05:07:57;;;;;;;10.77;7.90;;;17.90;19.10;;;;;;5051443;28;20754;-70
2023/06/14 05:10:24;;;;;;;79.13;13.02;;;17.80;19.40;;;;;;5051063;28;20392;-71
2023/06/14 05:12:50;;;;;;;10.23;7.65;;;17.70;19.80;;;;;;5050611;28;20428;-72
2023/06/14 05:15:15;;;;;;;15.67;7.10;;;17.80;19.60;;;;;;5051161;28;20386;-71
2023/06/14 05:17:42;;;;;;;12.30;7.47;;;17.80;19.70;;;;;;5050316;28;20382;-72
2023/06/14 05:20:10;;;;;;;12.38;7.32;;;17.80;19.80;;;;;;5050751;28;20409;-72
2023/06/14 05:22:35;;;;;;;15.02;7.28;;;17.80;19.80;;;;;;5051122;28;20381;-71
2023/06/14 05:25:01;;;;;;;11.03;7.03;;;17.80;19.70;;;;;;5053400;28;20393;-71
2023/06/14 05:27:27;;;;;;;15.35;7.50;;;18.00;19.40;;;;;;5051122;28;20841;-71
2023/06/14 05:29:55;;;;;;;8.70;6.50;;;18.10;19.20;;;;;;5050862;28;20423;-71
2023/06/14 05:32:21;;;;;;;13.57;7.20;;;18.20;18.90;;;;;;5050872;28;20917;-70
2023/06/14 05:34:46;;;;;;;11.37;7.33;;;18.30;18.90;;;;;;5050655;28;20413;-71
2023/06/14 05:37:13;;;;;;;9.20;6.00;;;18.40;18.70;;;;;;5050844;28;20390;-70
2023/06/14 05:39:38;;;;;;;14.23;7.68;;;18.40;18.50;;;;;;5049330;28;20408;-71
2023/06/14 05:42:06;;;;;;;13.00;6.40;;;18.50;18.60;;;;;;5049283;28;20870;-70
2023/06/14 05:44:31;;;;;;;10.73;6.57;;;18.70;18.40;;;;;;5050266;28;20564;-70
2023/06/14 05:46:56;;;;;;;12.97;6.40;;;19.00;17.80;;;;;;5050608;28;20385;-70
2023/06/14 05:49:22;;;;;;;11.43;6.40;;;19.20;16.60;;;;;;5050751;28;20389;-69
2023/06/14 05:51:48;;;;;;;13.18;6.40;;;19.40;17.10;;;;;;5050876;28;20389;-69
2023/06/14 05:54:13;;;;;;;10.20;6.10;;;19.60;15.60;;;;;;5050660;28;20377;-73
2023/06/14 05:56:39;;;;;;;9.63;6.17;;;19.70;15.20;;;;;;5050961;28;20500;-72
2023/06/14 05:59:04;;;;;;;11.43;6.30;;;19.80;14.70;;;;;;5051083;28;20429;-71
2023/06/14 06:01:30;;;;;;;13.33;6.40;;;19.90;14.60;;;;;;5050939;28;20881;-69
2023/06/14 06:03:56;;;;;;;13.70;6.00;;;19.90;14.50;;;;;;5050981;28;20378;-70
2023/06/14 06:06:22;;;;;;;20.48;6.70;;;19.90;14.20;;;;;;5051535;28;20436;-72
2023/06/14 06:08:48;;;;;;;13.80;6.30;;;20.00;13.90;;;;;;5051421;28;20786;-72
2023/06/14 06:11:13;;;;;;;11.60;5.97;;;20.00;14.10;;;;;;5050975;28;20396;-72
2023/06/14 06:13:40;;;;;;;11.02;5.82;;;20.20;14.00;;;;;;5050801;28;20425;-71
2023/06/14 06:16:06;;;;;;;12.07;5.80;;;20.20;13.80;;;;;;5050695;28;20385;-70
2023/06/14 06:18:31;;;;;;;16.47;5.57;;;20.30;13.40;;;;;;5050592;28;20901;-70
2023/06/14 06:20:57;;;;;;;11.90;6.00;;;20.30;13.50;;;;;;5050400;28;20388;-70
2023/06/14 06:23:22;;;;;;;12.80;5.70;;;20.40;13.70;;;;;;5050851;28;20378;-71
2023/06/14 06:25:48;;;;;;;17.43;5.60;;;20.40;13.50;;;;;;5050370;28;20382;-71
2023/06/14 06:28:13;;;;;;;10.37;5.47;;;20.40;13.20;;;;;;5050615;28;20429;-72
2023/06/14 06:30:39;;;;;;;12.60;5.15;;;20.50;13.40;;;;;;5053324;28;20420;-72
2023/06/14 06:33:05;;;;;;;11.23;5.47;;;20.70;12.90;;;;;;5054104;28;20381;-70
2023/06/14 06:35:32;;;;;;;9.27;4.80;;;20.70;12.70;;;;;;5054406;28;20385;-70
2023/06/14 06:37:58;;;;;;;10.82;5.00;;;20.80;12.80;;;;;;5054616;28;20424;-71
2023/06/14 06:40:24;;;;;;;11.25;4.60;;;21.00;12.20;;;;;;5055019;28;20715;-71
2023/06/14 06:42:50;;;;;;;8.65;4.88;;;21.10;12.00;;;;;;5053677;28;20389;-69
2023/06/14 06:45:15;;;;;;;9.60;4.17;;;21.20;11.70;;;;;;5053722;28;20902;-71
2023/06/14 06:47:41;;;;;;;21.90;4.57;;;21.30;11.50;;;;;;5054347;28;20816;-70
2023/06/14 06:50:07;;;;;;;9.30;4.80;;;21.30;11.50;;;;;;5054315;28;20469;-70
2023/06/14 06:52:33;;;;;;;12.38;4.95;;;21.50;10.70;;;;;;5054152;28;20786;-70
2023/06/14 06:54:58;;;;;;;9.70;3.70;;;21.50;10.90;;;;;;5054333;28;20400;-69
2023/06/14 06:57:24;;;;;;;9.20;4.60;;;21.50;10.40;;;;;;5053811;28;20700;-71
2023/06/14 06:59:50;;;;;;;8.00;4.10;;;21.60;9.70;;;;;;5055172;28;20409;-71
2023/06/14 07:02:16;;;;;;;7.82;3.70;;;21.70;9.80;;;;;;5070489;28;20393;-70
2023/06/14 07:04:41;;;;;;;8.17;3.60;;;21.70;9.10;;;;;;5071064;28;20480;-70
2023/06/14 07:07:09;;;;;;;6.10;3.37;;;21.80;9.20;;;;;;5068404;28;20389;-72
2023/06/14 07:09:35;;;;;;;9.20;3.20;;;21.90;8.90;;;;;;5054625;28;20389;-70
2023/06/14 07:12:00;;;;;;;6.43;3.60;;;21.90;8.60;;;;;;5050801;28;20737;-69
2023/06/14 07:14:26;;;;;;;14.23;4.00;;;21.80;8.30;;;;;;5037794;28;20485;-70
2023/06/14 07:16:51;;;;;;;13.45;3.80;;;21.90;8.50;;;;;;5040095;28;20387;-70
2023/06/14 07:19:17;;;;;;;6.50;3.40;;;21.90;8.60;;;;;;5039351;28;20466;-69
2023/06/14 07:21:43;;;;;;;8.30;3.92;;;21.90;8.30;;;;;;5044840;28;20396;-69
2023/06/14 07:24:08;;;;;;;6.20;2.90;;;22.00;8.20;;;;;;5041252;28;20415;-70
2023/06/14 07:26:35;;;;;;;12.43;3.60;;;22.10;8.00;;;;;;5040748;28;20410;-70
2023/06/14 07:29:00;;;;;;;10.02;3.50;;;22.10;8.20;;;;;;5056103;28;20401;-68
2023/06/14 07:31:27;;;;;;;9.30;3.15;;;22.20;7.30;;;;;;5060236;28;20395;-70
2023/06/14 07:33:52;;;;;;;5.78;3.20;;;22.20;7.30;;;;;;5048575;28;20399;-69
2023/06/14 07:36:18;;;;;;;6.37;3.20;;;22.10;7.90;;;;;;5038650;28;20402;-70
2023/06/14 07:38:44;;;;;;;7.10;3.43;;;22.20;8.10;;;;;;5042127;28;20414;-70
2023/06/14 07:41:09;;;;;;;6.07;3.20;;;22.30;7.70;;;;;;5047749;28;20482;-69
2023/06/14 07:43:35;;;;;;;7.93;3.70;;;22.30;6.70;;;;;;5035605;28;20399;-70
2023/06/14 07:46:01;;;;;;;7.43;3.50;;;22.30;6.00;;;;;;5048983;28;20471;-71
2023/06/14 07:48:27;;;;;;;5.30;2.92;;;22.20;6.30;;;;;;5048281;28;20391;-69
2023/06/14 07:50:53;;;;;;;6.17;3.03;;;22.30;6.50;;;;;;5044909;28;20421;-69
2023/06/14 07:53:18;;;;;;;11.73;3.63;;;22.30;6.40;;;;;;5053254;28;20742;-70
2023/06/14 07:55:44;;;;;;;5.30;3.25;;;22.20;6.80;;;;;;5052914;28;20754;-70
2023/06/14 07:58:10;;;;;;;5.63;3.60;;;22.30;7.40;;;;;;5039367;28;20807;-70
2023/06/14 08:00:36;;;;;;;11.13;3.45;;;22.40;7.30;;;;;;5034504;28;20870;-71
2023/06/14 08:03:02;;;;;;;9.20;3.50;;;22.50;6.90;;;;;;5044827;28;20481;-70
2023/06/14 08:05:28;;;;;;;8.40;3.50;;;22.70;7.00;;;;;;5051407;28;20719;-71
2023/06/14 08:07:55;;;;;;;6.05;2.80;;;22.70;6.00;;;;;;5051538;28;20820;-70
2023/06/14 08:10:21;;;;;;;9.55;3.40;;;22.70;6.00;;;;;;5052233;28;20393;-72
2023/06/14 08:12:48;;;;;;;8.13;2.97;;;22.70;6.20;;;;;;5054244;28;20400;-70
2023/06/14 08:15:13;;;;;;;8.55;3.17;;;22.80;4.70;;;;;;5065138;28;20381;-71
2023/06/14 08:17:39;;;;;;;6.97;3.20;;;22.70;4.80;;;;;;5083915;28;20452;-71
2023/06/14 08:20:06;;;;;;;8.90;3.90;;;22.70;4.90;;;;;;5068162;28;20417;-72
2023/06/14 08:22:33;;;;;;;4.53;2.63;;;22.70;5.10;;;;;;5063048;28;20489;-70
2023/06/14 08:25:00;;;;;;;5.00;3.15;;;22.80;5.20;;;;;;5035165;28;20430;-71
2023/06/14 08:27:26;;;;;;;6.30;2.80;;;22.90;5.70;;;;;;5029340;28;20454;-72
2023/06/14 08:29:52;;;;;;;6.40;2.80;;;22.90;5.10;;;;;;5030531;28;20383;-72
2023/06/14 08:32:17;;;;;;;6.10;3.00;;;22.90;5.40;;;;;;5029022;28;20482;-72
2023/06/14 08:34:43;;;;;;;5.97;3.20;;;23.00;5.30;;;;;;5036039;28;20406;-72
2023/06/14 08:37:08;;;;;;;6.65;3.00;;;23.00;5.70;;;;;;5049008;28;20445;-70
2023/06/14 08:39:34;;;;;;;8.37;3.33;;;23.00;5.90;;;;;;5037907;28;20512;-70
2023/06/14 08:42:02;;;;;;;7.55;3.10;;;23.00;5.20;;;;;;5050765;28;20424;-70
2023/06/14 08:44:29;;;;;;;6.40;2.60;;;23.00;5.80;;;;;;5049618;28;20890;-70
2023/06/14 08:46:57;;;;;;;6.47;3.33;;;22.90;5.90;;;;;;5049696;28;20416;-69
2023/06/14 08:49:24;;;;;;;6.50;3.40;;;23.00;6.40;;;;;;5049760;28;20421;-69
2023/06/14 08:51:58;;;;;;;10.77;3.87;;;23.00;6.70;;;;;;5041264;28;20405;-71
2023/06/14 08:54:27;;;;;;;5.75;2.90;;;22.90;7.20;;;;;;5030032;28;20425;-70
2023/06/14 08:56:57;;;;;;;10.38;3.20;;;23.00;6.60;;;;;;5029879;28;20764;-71
2023/06/14 08:59:26;;;;;;;9.40;2.95;;;23.00;6.00;;;;;;5030555;28;20465;-70
2023/06/14 09:01:54;;;;;;;8.23;2.50;;;22.70;5.90;;;;;;5030405;28;20383;-72
2023/06/14 09:04:21;;;;;;;3.80;2.40;;;22.70;5.90;;;;;;5030596;28;20465;-71
2023/06/14 09:06:52;;;;;;;8.75;3.00;;;22.60;5.60;;;;;;5030531;28;20465;-71
2023/06/14 09:09:22;;;;;;;4.20;2.90;;;22.60;5.30;;;;;;5030874;28;20453;-71
2023/06/14 09:11:49;;;;;;;8.77;3.10;;;22.70;6.80;;;;;;5029771;28;20906;-71
2023/06/14 09:14:15;;;;;;;10.35;3.22;;;22.90;6.70;;;;;;5030193;28;20896;-71
2023/06/14 09:16:41;;;;;;;5.57;2.90;;;23.00;6.30;;;;;;5029700;28;20452;-72
2023/06/14 09:19:20;;;;;;;9.40;2.60;;;23.10;5.70;;;;;;5031920;28;20406;-70
2023/06/14 09:21:47;;;;;;;9.60;3.17;;;23.10;5.80;;;;;;5049004;28;20389;-69
2023/06/14 09:24:14;;;;;;;11.27;3.03;;;23.00;5.70;;;;;;5052507;28;20398;-69
2023/06/14 09:26:40;;;;;;;5.80;3.30;;;23.00;6.20;;;;;;5041599;28;20446;-71
2023/06/14 09:29:06;;;;;;;7.50;3.55;;;22.80;6.60;;;;;;5031116;28;20985;-71
2023/06/14 09:31:32;;;;;;;11.03;4.00;;;22.80;6.80;;;;;;5031216;28;20498;-71
2023/06/14 09:34:01;;;;;;;5.80;2.83;;;22.80;6.30;;;;;;5031723;28;20410;-69
2023/06/14 09:36:27;;;;;;;7.30;2.90;;;22.90;5.70;;;;;;5032384;28;20402;-70
2023/06/14 09:38:54;;;;;;;8.00;3.30;;;22.70;5.40;;;;;;5048345;28;20820;-73
2023/06/14 09:41:19;;;;;;;8.10;4.70;;;22.70;5.20;;;;;;5052216;28;20377;-71
2023/06/14 09:43:47;;;;;;;5.83;3.17;;;22.80;5.30;;;;;;5051130;28;20384;-71
2023/06/14 09:46:13;;;;;;;5.40;2.70;;;22.90;4.70;;;;;;5051705;28;20423;-71
2023/06/14 09:48:42;;;;;;;6.80;4.17;;;23.00;4.30;;;;;;5051739;28;20404;-70
2023/06/14 09:51:10;;;;;;;7.05;4.32;;;23.00;4.90;;;;;;5051298;28;20413;-71
2023/06/14 09:53:37;;;;;;;8.25;4.20;;;23.00;4.90;;;;;;5051134;28;20416;-72
2023/06/14 09:56:03;;;;;;;6.07;3.43;;;23.10;5.20;;;;;;5051565;28;20727;-71
2023/06/14 09:58:30;;;;;;;8.38;3.58;;;23.10;4.60;;;;;;5050259;28;20432;-72
2023/06/14 10:00:56;;;;;;;5.32;2.90;;;23.00;4.70;;;;;;5052356;28;20377;-71
2023/06/14 10:03:27;;;;;;;7.55;3.30;;;23.00;5.10;;;;;;5051334;28;20405;-72
2023/06/14 10:05:55;;;;;;;8.27;3.10;;;23.10;5.00;;;;;;5055724;28;20683;-72
2023/06/14 10:08:25;;;;;;;5.55;2.83;;;23.10;5.10;;;;;;5057087;28;20385;-72
2023/06/14 10:10:52;;;;;;;8.03;2.40;;;23.20;5.00;;;;;;5055878;28;20377;-71
2023/06/14 10:13:18;;;;;;;8.73;3.67;;;23.20;4.60;;;;;;5056948;28;20400;-72
2023/06/14 10:16:10;;;;;;;8.07;3.92;;;23.10;5.60;;;;;;5057987;28;20393;-72
2023/06/14 10:18:54;;;;;;;6.70;3.47;;;23.20;5.40;;;;;;5056752;28;20408;-72
2023/06/14 10:21:37;;;;;;;4.70;2.70;;;23.30;4.90;;;;;;5055510;28;20942;-71
2023/06/14 10:24:08;;;;;;;6.88;4.22;;;23.10;4.00;;;;;;5054927;28;20385;-70
2023/06/14 10:26:34;;;;;;;8.55;3.25;;;23.10;5.50;;;;;;5056280;28;20846;-72
2023/06/14 10:29:06;;;;;;;6.15;2.72;;;23.30;4.90;;;;;;5056422;28;20408;-71
2023/06/14 10:31:42;;;;;;;4.05;2.33;;;23.40;4.30;;;;;;5055708;28;20664;-71
2023/06/14 10:34:08;;;;;;;9.43;3.38;;;23.50;4.00;;;;;;5055472;28;20393;-72
2023/06/14 10:36:34;;;;;;;14.25;4.05;;;23.60;4.40;;;;;;5056804;28;20386;-71
2023/06/14 10:39:06;;;;;;;9.00;2.90;;;23.60;4.80;;;;;;5065140;28;20405;-72
2023/06/14 10:41:36;;;;;;;8.20;4.03;;;23.70;4.50;;;;;;5067292;28;20385;-73
2023/06/14 10:44:24;;;;;;;5.13;3.10;;;23.70;4.70;;;;;;5068297;28;20403;-71
2023/06/14 10:46:52;;;;;;;6.30;2.60;;;23.70;4.90;;;;;;5035832;28;20446;-72
2023/06/14 10:49:44;;;;;;;8.60;4.18;;;23.70;4.00;;;;;;5059111;28;20385;-72
2023/06/14 10:52:18;;;;;;;4.03;2.85;;;23.80;4.70;;;;;;5057242;28;20377;-72
2023/06/14 10:55:08;;;;;;;7.75;4.10;;;23.90;3.80;;;;;;5052551;28;20874;-71
2023/06/14 10:57:35;;;;;;;5.50;3.37;;;24.00;3.90;;;;;;5054570;28;20389;-72
2023/06/14 11:00:11;;;;;;;6.47;3.20;;;24.00;3.60;;;;;;5055783;28;20409;-71
2023/06/14 11:02:54;;;;;;;4.30;2.90;;;24.00;3.50;;;;;;5058995;28;20401;-71
2023/06/14 11:05:27;;;;;;;9.13;2.60;;;24.00;4.20;;;;;;5064349;28;20400;-69
2023/06/14 11:08:12;;;;;;;4.35;2.42;;;24.00;3.70;;;;;;5067643;28;20389;-71
2023/06/14 11:10:43;;;;;;;5.50;2.25;;;23.90;3.90;;;;;;5062474;28;20382;-72
2023/06/14 11:13:08;;;;;;;13.50;4.70;;;23.70;4.80;;;;;;5060262;28;20431;-72
2023/06/14 11:15:36;;;;;;;4.13;2.57;;;23.90;5.10;;;;;;5055066;28;20382;-72
2023/06/14 11:18:03;;;;;;;6.78;4.10;;;24.10;4.20;;;;;;5053416;28;20384;-72
2023/06/14 11:20:31;;;;;;;6.65;3.03;;;24.30;4.80;;;;;;5053239;28;20385;-71
2023/06/14 11:22:57;;;;;;;5.93;3.20;;;24.40;3.70;;;;;;5053152;28;20381;-71
2023/06/14 11:25:23;;;;;;;7.50;3.88;;;24.50;4.50;;;;;;5053162;28;20472;-71
2023/06/14 11:27:51;;;;;;;8.32;3.60;;;24.50;4.70;;;;;;5053253;28;20538;-71
2023/06/14 11:30:18;;;;;;;6.93;3.17;;;24.60;5.60;;;;;;5053278;28;20401;-72
2023/06/14 11:32:47;;;;;;;6.70;3.00;;;24.80;4.00;;;;;;5053204;28;20874;-73
2023/06/14 11:35:13;;;;;;;7.10;2.92;;;24.80;4.20;;;;;;5053955;28;20440;-70
2023/06/14 11:37:39;;;;;;;6.05;2.65;;;24.70;4.40;;;;;;5053349;28;20390;-72
2023/06/14 11:40:09;;;;;;;5.35;2.60;;;24.90;4.20;;;;;;5054005;28;20402;-72
2023/06/14 11:42:36;;;;;;;5.15;2.40;;;24.90;3.90;;;;;;5063448;28;20381;-70
2023/06/14 11:45:03;;;;;;;7.27;2.30;;;24.90;3.20;;;;;;5065048;28;20417;-71
2023/06/14 11:47:46;;;;;;;8.90;3.70;;;24.80;3.70;;;;;;5064939;28;20381;-71
2023/06/14 11:50:12;;;;;;;3.53;2.13;;;24.80;4.50;;;;;;5053706;28;20472;-72
2023/06/14 11:52:38;;;;;;;4.90;2.70;;;24.90;3.70;;;;;;5052265;28;20553;-73
2023/06/14 11:55:07;;;;;;;9.60;3.80;;;25.00;3.90;;;;;;5053703;28;20393;-70
2023/06/14 11:57:36;;;;;;;5.25;2.67;;;25.10;3.90;;;;;;5051211;28;20480;-71
2023/06/14 12:00:15;;;;;;;4.90;2.50;;;25.20;3.30;;;;;;5052425;28;20812;-71
2023/06/14 12:02:40;;;;;;;4.30;2.60;;;25.40;3.10;;;;;;5052010;28;20400;-71
2023/06/14 12:05:09;;;;;;;5.03;2.50;;;25.40;2.80;;;;;;5052601;28;20472;-72
2023/06/14 12:07:41;;;;;;;5.85;2.88;;;25.20;2.60;;;;;;5052900;28;20377;-72
2023/06/14 12:10:08;;;;;;;4.80;3.53;;;25.20;3.70;;;;;;5052631;28;20385;-71
2023/06/14 12:12:38;;;;;;;6.60;3.00;;;25.50;3.50;;;;;;5054493;28;20385;-72
2023/06/14 12:15:09;;;;;;;5.80;2.50;;;25.70;2.60;;;;;;5056768;28;20461;-73
2023/06/14 12:17:36;;;;;;;6.10;3.00;;;25.30;2.30;;;;;;5052859;28;20377;-71
2023/06/14 12:20:15;;;;;;;9.38;3.30;;;25.40;3.10;;;;;;5052016;28;20452;-70
2023/06/14 12:23:08;;;;;;;7.30;3.30;;;25.50;3.30;;;;;;5051559;28;20792;-72
2023/06/14 12:25:36;;;;;;;3.47;2.40;;;25.70;2.40;;;;;;5049677;28;20393;-70
2023/06/14 12:28:09;;;;;;;4.90;2.40;;;25.60;2.60;;;;;;5051403;28;20435;-70
2023/06/14 12:30:36;;;;;;;7.45;2.90;;;25.70;2.60;;;;;;5051893;28;20382;-72
2023/06/14 12:33:05;;;;;;;5.03;2.53;;;25.70;3.30;;;;;;5051982;28;20401;-72
2023/06/14 12:35:31;;;;;;;3.45;2.20;;;25.90;3.00;;;;;;5051648;28;20377;-73
2023/06/14 12:37:56;;;;;;;4.55;2.53;;;26.10;3.00;;;;;;5052577;28;20488;-73
2023/06/14 12:40:23;;;;;;;5.50;2.40;;;26.20;3.00;;;;;;5051835;28;20409;-72
2023/06/14 12:42:48;;;;;;;7.70;3.50;;;25.80;2.50;;;;;;5051741;28;20484;-72
2023/06/14 12:45:14;;;;;;;6.67;2.23;;;25.80;3.70;;;;;;5051574;28;20444;-71
2023/06/14 12:47:40;;;;;;;5.35;3.10;;;26.00;3.30;;;;;;5051232;28;20388;-72